sensor_id;sensor_type;location;lat;lon;timestamp;temperature;humidity
59208;DHT22;44977;53.132;6.408;2022-07-11T00:03:40;16.20;99.90
59208;DHT22;44977;53.132;6.408;2022-07-11T00:08:41;16.20;99.90
59208;DHT22;44977;53.132;6.408;2022-07-11T00:13:41;16.20;99.90
59208;DHT22;44977;53.132;6.408;2022-07-11T00:18:42;16.20;99.90
59208;DHT22;44977;53.132;6.408;2022-07-11T00:23:43;16.20;99.90
59208;DHT22;44977;53.132;6.408;2022-07-11T00:28:43;16.20;99.90
59208;DHT22;44977;53.132;6.408;2022-07-11T00:33:44;16.10;99.90
59208;DHT22;44977;53.132;6.408;2022-07-11T00:38:45;16.20;99.90
59208;DHT22;44977;53.132;6.408;2022-07-11T00:43:54;16.10;99.90
59208;DHT22;44977;53.132;6.408;2022-07-11T00:48:58;16.10;99.90
59208;DHT22;44977;53.132;6.408;2022-07-11T00:54:00;16.10;99.90
59208;DHT22;44977;53.132;6.408;2022-07-11T00:59:01;16.00;99.90
59208;DHT22;44977;53.132;6.408;2022-07-11T01:04:03;16.00;99.90
59208;DHT22;44977;53.132;6.408;2022-07-11T01:09:03;16.00;99.90
59208;DHT22;44977;53.132;6.408;2022-07-11T01:14:04;16.00;99.90
59208;DHT22;44977;53.132;6.408;2022-07-11T01:19:05;15.90;99.90
59208;DHT22;44977;53.132;6.408;2022-07-11T01:24:07;15.90;99.90
59208;DHT22;44977;53.132;6.408;2022-07-11T01:29:10;15.90;99.90
59208;DHT22;44977;53.132;6.408;2022-07-11T01:34:11;15.90;99.90
59208;DHT22;44977;53.132;6.408;2022-07-11T01:39:12;15.80;99.90
59208;DHT22;44977;53.132;6.408;2022-07-11T01:44:13;15.80;99.90
59208;DHT22;44977;53.132;6.408;2022-07-11T01:49:14;15.90;99.90
59208;DHT22;44977;53.132;6.408;2022-07-11T01:54:16;15.90;99.90
59208;DHT22;44977;53.132;6.408;2022-07-11T01:59:16;15.90;99.90
59208;DHT22;44977;53.132;6.408;2022-07-11T02:04:17;15.80;99.90
59208;DHT22;44977;53.132;6.408;2022-07-11T02:09:17;15.80;99.90
59208;DHT22;44977;53.132;6.408;2022-07-11T02:14:18;15.90;99.90
59208;DHT22;44977;53.132;6.408;2022-07-11T02:19:19;15.80;99.90
59208;DHT22;44977;53.132;6.408;2022-07-11T02:24:20;15.80;99.90
59208;DHT22;44977;53.132;6.408;2022-07-11T02:29:20;15.80;99.90
59208;DHT22;44977;53.132;6.408;2022-07-11T02:34:23;15.80;99.90
59208;DHT22;44977;53.132;6.408;2022-07-11T02:39:23;15.80;99.90
59208;DHT22;44977;53.132;6.408;2022-07-11T02:44:24;15.80;99.90
59208;DHT22;44977;53.132;6.408;2022-07-11T02:49:25;15.80;99.90
59208;DHT22;44977;53.132;6.408;2022-07-11T02:54:26;15.80;99.90
59208;DHT22;44977;53.132;6.408;2022-07-11T02:59:27;15.80;99.90
59208;DHT22;44977;53.132;6.408;2022-07-11T03:04:27;15.80;99.90
59208;DHT22;44977;53.132;6.408;2022-07-11T03:09:28;15.70;99.90
59208;DHT22;44977;53.132;6.408;2022-07-11T03:14:29;15.80;99.90
59208;DHT22;44977;53.132;6.408;2022-07-11T03:19:30;15.80;99.90
59208;DHT22;44977;53.132;6.408;2022-07-11T03:24:30;15.80;99.90
59208;DHT22;44977;53.132;6.408;2022-07-11T03:29:31;15.80;99.90
59208;DHT22;44977;53.132;6.408;2022-07-11T03:34:32;15.80;99.90
59208;DHT22;44977;53.132;6.408;2022-07-11T03:39:33;15.80;99.90
59208;DHT22;44977;53.132;6.408;2022-07-11T03:44:33;15.80;99.90
59208;DHT22;44977;53.132;6.408;2022-07-11T03:49:34;15.80;99.90
59208;DHT22;44977;53.132;6.408;2022-07-11T03:54:35;15.80;99.90
59208;DHT22;44977;53.132;6.408;2022-07-11T03:59:35;15.80;99.90
59208;DHT22;44977;53.132;6.408;2022-07-11T04:04:36;15.80;99.90
59208;DHT22;44977;53.132;6.408;2022-07-11T04:09:36;15.80;99.90
59208;DHT22;44977;53.132;6.408;2022-07-11T04:14:37;15.80;99.90
59208;DHT22;44977;53.132;6.408;2022-07-11T04:19:38;15.80;99.90
59208;DHT22;44977;53.132;6.408;2022-07-11T04:24:39;15.80;99.90
59208;DHT22;44977;53.132;6.408;2022-07-11T04:29:39;15.80;99.90
59208;DHT22;44977;53.132;6.408;2022-07-11T04:34:40;15.80;99.90
59208;DHT22;44977;53.132;6.408;2022-07-11T04:39:40;15.80;99.90
59208;DHT22;44977;53.132;6.408;2022-07-11T04:44:41;15.80;99.90
59208;DHT22;44977;53.132;6.408;2022-07-11T04:49:42;15.90;99.90
59208;DHT22;44977;53.132;6.408;2022-07-11T04:54:46;15.90;99.90
59208;DHT22;44977;53.132;6.408;2022-07-11T04:59:47;15.80;99.90
59208;DHT22;44977;53.132;6.408;2022-07-11T05:04:48;15.90;99.90
59208;DHT22;44977;53.132;6.408;2022-07-11T05:09:49;15.90;99.90
59208;DHT22;44977;53.132;6.408;2022-07-11T05:14:50;15.90;99.90
59208;DHT22;44977;53.132;6.408;2022-07-11T05:19:51;15.90;99.90
59208;DHT22;44977;53.132;6.408;2022-07-11T05:24:51;15.90;99.90
59208;DHT22;44977;53.132;6.408;2022-07-11T05:29:52;15.90;99.90
59208;DHT22;44977;53.132;6.408;2022-07-11T05:34:55;15.90;99.90
59208;DHT22;44977;53.132;6.408;2022-07-11T05:39:57;15.90;99.90
59208;DHT22;44977;53.132;6.408;2022-07-11T05:44:58;16.00;99.90
59208;DHT22;44977;53.132;6.408;2022-07-11T05:49:58;16.00;99.90
59208;DHT22;44977;53.132;6.408;2022-07-11T05:54:59;16.00;99.90
59208;DHT22;44977;53.132;6.408;2022-07-11T06:00:00;16.00;99.90
59208;DHT22;44977;53.132;6.408;2022-07-11T06:05:01;16.10;99.90
59208;DHT22;44977;53.132;6.408;2022-07-11T06:10:02;16.10;99.90
59208;DHT22;44977;53.132;6.408;2022-07-11T06:15:03;16.20;99.90
59208;DHT22;44977;53.132;6.408;2022-07-11T06:20:04;16.20;99.90
59208;DHT22;44977;53.132;6.408;2022-07-11T06:25:05;16.30;99.90
59208;DHT22;44977;53.132;6.408;2022-07-11T06:30:06;16.30;99.90
59208;DHT22;44977;53.132;6.408;2022-07-11T06:35:08;16.30;99.90
59208;DHT22;44977;53.132;6.408;2022-07-11T06:40:09;16.30;99.90
59208;DHT22;44977;53.132;6.408;2022-07-11T06:45:12;16.40;99.90
59208;DHT22;44977;53.132;6.408;2022-07-11T06:50:12;16.40;99.90
59208;DHT22;44977;53.132;6.408;2022-07-11T06:55:14;16.40;99.90
59208;DHT22;44977;53.132;6.408;2022-07-11T07:00:14;16.50;99.90
59208;DHT22;44977;53.132;6.408;2022-07-11T07:05:15;16.50;99.90
59208;DHT22;44977;53.132;6.408;2022-07-11T07:10:16;16.60;99.90
59208;DHT22;44977;53.132;6.408;2022-07-11T07:15:16;16.70;99.90
59208;DHT22;44977;53.132;6.408;2022-07-11T07:20:17;16.70;99.90
59208;DHT22;44977;53.132;6.408;2022-07-11T07:25:18;16.70;99.90
59208;DHT22;44977;53.132;6.408;2022-07-11T07:30:18;16.70;99.90
59208;DHT22;44977;53.132;6.408;2022-07-11T07:35:19;16.80;99.90
59208;DHT22;44977;53.132;6.408;2022-07-11T07:40:20;16.90;99.90
59208;DHT22;44977;53.132;6.408;2022-07-11T07:45:21;17.10;99.90
59208;DHT22;44977;53.132;6.408;2022-07-11T07:50:22;17.30;99.90
59208;DHT22;44977;53.132;6.408;2022-07-11T07:55:23;17.40;99.90
59208;DHT22;44977;53.132;6.408;2022-07-11T08:00:24;17.60;99.90
59208;DHT22;44977;53.132;6.408;2022-07-11T08:05:43;17.60;99.90
59208;DHT22;44977;53.132;6.408;2022-07-11T08:10:44;17.60;99.90
59208;DHT22;44977;53.132;6.408;2022-07-11T08:15:45;17.70;99.90
59208;DHT22;44977;53.132;6.408;2022-07-11T08:20:46;17.80;99.90
59208;DHT22;44977;53.132;6.408;2022-07-11T08:25:46;18.00;99.90
59208;DHT22;44977;53.132;6.408;2022-07-11T08:30:47;18.00;99.90
59208;DHT22;44977;53.132;6.408;2022-07-11T08:35:48;18.00;99.90
59208;DHT22;44977;53.132;6.408;2022-07-11T08:40:49;17.90;99.90
59208;DHT22;44977;53.132;6.408;2022-07-11T08:45:52;17.90;99.90
59208;DHT22;44977;53.132;6.408;2022-07-11T08:50:52;18.10;99.90
59208;DHT22;44977;53.132;6.408;2022-07-11T08:55:54;18.10;99.90
59208;DHT22;44977;53.132;6.408;2022-07-11T09:00:54;18.10;99.90
59208;DHT22;44977;53.132;6.408;2022-07-11T09:05:56;18.20;99.90
59208;DHT22;44977;53.132;6.408;2022-07-11T09:10:56;18.20;99.90
59208;DHT22;44977;53.132;6.408;2022-07-11T09:16:03;18.20;99.90
59208;DHT22;44977;53.132;6.408;2022-07-11T09:21:06;18.20;99.90
59208;DHT22;44977;53.132;6.408;2022-07-11T09:26:29;18.20;99.90
59208;DHT22;44977;53.132;6.408;2022-07-11T09:31:31;18.20;99.90
59208;DHT22;44977;53.132;6.408;2022-07-11T09:36:46;18.20;99.90
59208;DHT22;44977;53.132;6.408;2022-07-11T09:41:49;18.20;99.90
59208;DHT22;44977;53.132;6.408;2022-07-11T09:46:51;18.20;99.90
59208;DHT22;44977;53.132;6.408;2022-07-11T09:51:52;18.30;99.90
59208;DHT22;44977;53.132;6.408;2022-07-11T09:56:53;18.30;99.90
59208;DHT22;44977;53.132;6.408;2022-07-11T10:01:53;18.30;99.90
59208;DHT22;44977;53.132;6.408;2022-07-11T10:06:54;18.30;99.90
59208;DHT22;44977;53.132;6.408;2022-07-11T10:11:56;18.30;99.90
59208;DHT22;44977;53.132;6.408;2022-07-11T10:17:04;18.30;99.90
59208;DHT22;44977;53.132;6.408;2022-07-11T10:22:27;18.30;99.90
59208;DHT22;44977;53.132;6.408;2022-07-11T10:27:59;18.30;99.90
59208;DHT22;44977;53.132;6.408;2022-07-11T10:32:58;18.30;99.90
59208;DHT22;44977;53.132;6.408;2022-07-11T10:38:05;18.40;99.90
59208;DHT22;44977;53.132;6.408;2022-07-11T10:43:06;18.60;99.90
59208;DHT22;44977;53.132;6.408;2022-07-11T10:48:10;18.80;99.90
59208;DHT22;44977;53.132;6.408;2022-07-11T10:53:21;18.90;99.90
59208;DHT22;44977;53.132;6.408;2022-07-11T10:58:27;18.90;99.90
59208;DHT22;44977;53.132;6.408;2022-07-11T11:03:29;19.00;99.90
59208;DHT22;44977;53.132;6.408;2022-07-11T11:13:37;19.20;99.90
59208;DHT22;44977;53.132;6.408;2022-07-11T11:18:42;19.30;99.90
59208;DHT22;44977;53.132;6.408;2022-07-11T11:24:03;19.30;99.90
59208;DHT22;44977;53.132;6.408;2022-07-11T11:29:07;19.40;99.90
59208;DHT22;44977;53.132;6.408;2022-07-11T11:34:07;19.40;99.90
59208;DHT22;44977;53.132;6.408;2022-07-11T11:39:08;19.40;99.90
59208;DHT22;44977;53.132;6.408;2022-07-11T11:44:09;19.50;99.90
59208;DHT22;44977;53.132;6.408;2022-07-11T11:49:09;19.50;99.90
59208;DHT22;44977;53.132;6.408;2022-07-11T11:54:10;19.50;99.90
59208;DHT22;44977;53.132;6.408;2022-07-11T11:59:11;19.60;99.90
59208;DHT22;44977;53.132;6.408;2022-07-11T12:04:16;19.70;99.90
59208;DHT22;44977;53.132;6.408;2022-07-11T12:09:21;19.70;99.90
59208;DHT22;44977;53.132;6.408;2022-07-11T12:14:45;19.70;99.90
59208;DHT22;44977;53.132;6.408;2022-07-11T12:19:45;19.80;99.90
59208;DHT22;44977;53.132;6.408;2022-07-11T12:24:52;19.90;99.90
59208;DHT22;44977;53.132;6.408;2022-07-11T12:29:53;19.90;99.90
59208;DHT22;44977;53.132;6.408;2022-07-11T12:34:53;19.80;99.90
59208;DHT22;44977;53.132;6.408;2022-07-11T12:39:55;19.90;99.90
59208;DHT22;44977;53.132;6.408;2022-07-11T12:45:10;19.90;99.90
59208;DHT22;44977;53.132;6.408;2022-07-11T12:50:18;19.90;99.90
59208;DHT22;44977;53.132;6.408;2022-07-11T12:55:24;19.80;99.90
59208;DHT22;44977;53.132;6.408;2022-07-11T13:00:25;19.80;99.90
59208;DHT22;44977;53.132;6.408;2022-07-11T13:05:26;19.90;99.90
59208;DHT22;44977;53.132;6.408;2022-07-11T13:10:28;19.90;99.90
59208;DHT22;44977;53.132;6.408;2022-07-11T13:15:47;19.90;99.90
59208;DHT22;44977;53.132;6.408;2022-07-11T13:20:49;20.00;99.90
59208;DHT22;44977;53.132;6.408;2022-07-11T13:25:50;20.00;99.90
59208;DHT22;44977;53.132;6.408;2022-07-11T13:30:51;20.20;99.90
59208;DHT22;44977;53.132;6.408;2022-07-11T13:35:52;20.20;99.90
59208;DHT22;44977;53.132;6.408;2022-07-11T13:40:53;20.30;99.90
59208;DHT22;44977;53.132;6.408;2022-07-11T13:45:54;20.30;99.90
59208;DHT22;44977;53.132;6.408;2022-07-11T13:50:55;20.30;99.90
59208;DHT22;44977;53.132;6.408;2022-07-11T13:55:56;20.40;99.90
59208;DHT22;44977;53.132;6.408;2022-07-11T14:01:00;20.50;99.90
59208;DHT22;44977;53.132;6.408;2022-07-11T14:06:01;20.50;99.90
59208;DHT22;44977;53.132;6.408;2022-07-11T14:11:02;20.50;99.90
59208;DHT22;44977;53.132;6.408;2022-07-11T14:16:03;20.50;99.90
59208;DHT22;44977;53.132;6.408;2022-07-11T14:21:04;20.50;99.90
59208;DHT22;44977;53.132;6.408;2022-07-11T14:26:05;20.60;99.90
59208;DHT22;44977;53.132;6.408;2022-07-11T14:31:07;20.60;99.90
59208;DHT22;44977;53.132;6.408;2022-07-11T14:36:08;20.60;99.90
59208;DHT22;44977;53.132;6.408;2022-07-11T14:41:09;20.60;99.90
59208;DHT22;44977;53.132;6.408;2022-07-11T14:46:10;20.70;99.90
59208;DHT22;44977;53.132;6.408;2022-07-11T14:51:10;20.70;99.90
59208;DHT22;44977;53.132;6.408;2022-07-11T14:56:11;20.70;99.90
59208;DHT22;44977;53.132;6.408;2022-07-11T15:01:12;20.80;99.90
59208;DHT22;44977;53.132;6.408;2022-07-11T15:06:14;20.80;99.90
59208;DHT22;44977;53.132;6.408;2022-07-11T15:11:15;20.70;99.90
59208;DHT22;44977;53.132;6.408;2022-07-11T15:16:34;20.80;99.90
59208;DHT22;44977;53.132;6.408;2022-07-11T15:21:35;20.90;99.90
59208;DHT22;44977;53.132;6.408;2022-07-11T15:26:36;20.90;99.90
59208;DHT22;44977;53.132;6.408;2022-07-11T15:31:37;20.90;99.90
59208;DHT22;44977;53.132;6.408;2022-07-11T15:36:37;20.90;99.90
59208;DHT22;44977;53.132;6.408;2022-07-11T15:41:38;21.00;99.90
59208;DHT22;44977;53.132;6.408;2022-07-11T15:46:39;21.00;99.90
59208;DHT22;44977;53.132;6.408;2022-07-11T15:51:40;20.90;99.90
59208;DHT22;44977;53.132;6.408;2022-07-11T15:56:40;21.00;99.90
59208;DHT22;44977;53.132;6.408;2022-07-11T16:01:41;21.00;99.90
59208;DHT22;44977;53.132;6.408;2022-07-11T16:06:42;21.10;99.90
59208;DHT22;44977;53.132;6.408;2022-07-11T16:11:43;21.00;99.90
59208;DHT22;44977;53.132;6.408;2022-07-11T16:16:44;21.00;99.90
59208;DHT22;44977;53.132;6.408;2022-07-11T16:21:44;21.00;99.90
59208;DHT22;44977;53.132;6.408;2022-07-11T16:26:46;21.00;99.90
59208;DHT22;44977;53.132;6.408;2022-07-11T16:31:47;20.90;99.90
59208;DHT22;44977;53.132;6.408;2022-07-11T16:36:48;20.90;99.90
59208;DHT22;44977;53.132;6.408;2022-07-11T16:41:49;20.80;99.90
59208;DHT22;44977;53.132;6.408;2022-07-11T16:47:09;20.70;99.90
59208;DHT22;44977;53.132;6.408;2022-07-11T16:52:10;20.60;99.90
59208;DHT22;44977;53.132;6.408;2022-07-11T16:57:10;20.60;99.90
59208;DHT22;44977;53.132;6.408;2022-07-11T17:02:11;20.50;99.90
59208;DHT22;44977;53.132;6.408;2022-07-11T17:07:12;20.40;99.90
59208;DHT22;44977;53.132;6.408;2022-07-11T17:12:13;20.30;99.90
59208;DHT22;44977;53.132;6.408;2022-07-11T17:17:14;20.20;99.90
59208;DHT22;44977;53.132;6.408;2022-07-11T17:22:14;20.20;99.90
59208;DHT22;44977;53.132;6.408;2022-07-11T17:27:15;20.00;99.90
59208;DHT22;44977;53.132;6.408;2022-07-11T17:32:16;19.90;99.90
59208;DHT22;44977;53.132;6.408;2022-07-11T17:37:16;19.80;99.90
59208;DHT22;44977;53.132;6.408;2022-07-11T17:42:18;19.80;99.90
59208;DHT22;44977;53.132;6.408;2022-07-11T17:47:20;19.70;99.90
59208;DHT22;44977;53.132;6.408;2022-07-11T17:52:20;19.70;99.90
59208;DHT22;44977;53.132;6.408;2022-07-11T17:57:21;19.60;99.90
59208;DHT22;44977;53.132;6.408;2022-07-11T18:02:22;19.50;99.90
59208;DHT22;44977;53.132;6.408;2022-07-11T18:07:22;19.50;99.90
59208;DHT22;44977;53.132;6.408;2022-07-11T18:12:24;19.40;99.90
59208;DHT22;44977;53.132;6.408;2022-07-11T18:17:24;19.30;99.90
59208;DHT22;44977;53.132;6.408;2022-07-11T18:22:28;19.30;99.90
59208;DHT22;44977;53.132;6.408;2022-07-11T18:27:29;19.20;99.90
59208;DHT22;44977;53.132;6.408;2022-07-11T18:32:29;19.10;99.90
59208;DHT22;44977;53.132;6.408;2022-07-11T18:37:32;19.00;99.90
59208;DHT22;44977;53.132;6.408;2022-07-11T18:42:33;19.00;99.90
59208;DHT22;44977;53.132;6.408;2022-07-11T18:47:33;19.00;99.90
59208;DHT22;44977;53.132;6.408;2022-07-11T18:52:34;18.90;99.90
59208;DHT22;44977;53.132;6.408;2022-07-11T18:57:35;18.80;99.90
59208;DHT22;44977;53.132;6.408;2022-07-11T19:02:36;18.80;99.90
59208;DHT22;44977;53.132;6.408;2022-07-11T19:07:37;18.60;99.90
59208;DHT22;44977;53.132;6.408;2022-07-11T19:12:38;18.60;99.90
59208;DHT22;44977;53.132;6.408;2022-07-11T19:17:38;18.50;99.90
59208;DHT22;44977;53.132;6.408;2022-07-11T19:22:39;18.40;99.90
59208;DHT22;44977;53.132;6.408;2022-07-11T19:27:40;18.30;99.90
59208;DHT22;44977;53.132;6.408;2022-07-11T19:32:40;18.30;99.90
59208;DHT22;44977;53.132;6.408;2022-07-11T19:37:41;18.20;99.90
59208;DHT22;44977;53.132;6.408;2022-07-11T19:42:42;18.20;99.90
59208;DHT22;44977;53.132;6.408;2022-07-11T19:47:42;18.10;99.90
59208;DHT22;44977;53.132;6.408;2022-07-11T19:52:43;18.00;99.90
59208;DHT22;44977;53.132;6.408;2022-07-11T19:57:44;17.90;99.90
59208;DHT22;44977;53.132;6.408;2022-07-11T20:02:47;17.90;99.90
59208;DHT22;44977;53.132;6.408;2022-07-11T20:07:50;17.80;99.90
59208;DHT22;44977;53.132;6.408;2022-07-11T20:12:51;17.80;99.90
59208;DHT22;44977;53.132;6.408;2022-07-11T20:17:51;17.80;99.90
59208;DHT22;44977;53.132;6.408;2022-07-11T20:22:52;17.60;99.90
59208;DHT22;44977;53.132;6.408;2022-07-11T20:27:53;17.70;99.90
59208;DHT22;44977;53.132;6.408;2022-07-11T20:32:54;17.60;99.90
59208;DHT22;44977;53.132;6.408;2022-07-11T20:37:54;17.50;99.90
59208;DHT22;44977;53.132;6.408;2022-07-11T20:42:55;17.50;99.90
59208;DHT22;44977;53.132;6.408;2022-07-11T20:47:56;17.50;99.90
59208;DHT22;44977;53.132;6.408;2022-07-11T20:52:56;17.50;99.90
59208;DHT22;44977;53.132;6.408;2022-07-11T20:57:57;17.40;99.90
59208;DHT22;44977;53.132;6.408;2022-07-11T21:02:58;17.50;99.90
59208;DHT22;44977;53.132;6.408;2022-07-11T21:07:59;17.40;99.90
59208;DHT22;44977;53.132;6.408;2022-07-11T21:13:01;17.30;99.90
59208;DHT22;44977;53.132;6.408;2022-07-11T21:18:02;17.30;99.90
59208;DHT22;44977;53.132;6.408;2022-07-11T21:23:03;17.30;99.90
59208;DHT22;44977;53.132;6.408;2022-07-11T21:28:05;17.30;99.90
59208;DHT22;44977;53.132;6.408;2022-07-11T21:33:05;17.30;99.90
59208;DHT22;44977;53.132;6.408;2022-07-11T21:38:07;17.20;99.90
59208;DHT22;44977;53.132;6.408;2022-07-11T21:43:08;17.20;99.90
59208;DHT22;44977;53.132;6.408;2022-07-11T21:48:08;17.20;99.90
59208;DHT22;44977;53.132;6.408;2022-07-11T21:53:09;17.10;99.90
59208;DHT22;44977;53.132;6.408;2022-07-11T21:58:10;17.10;99.90
59208;DHT22;44977;53.132;6.408;2022-07-11T22:03:11;17.10;99.90
59208;DHT22;44977;53.132;6.408;2022-07-11T22:08:11;17.10;99.90
59208;DHT22;44977;53.132;6.408;2022-07-11T22:13:12;17.10;99.90
59208;DHT22;44977;53.132;6.408;2022-07-11T22:18:12;17.00;99.90
59208;DHT22;44977;53.132;6.408;2022-07-11T22:23:13;17.00;99.90
59208;DHT22;44977;53.132;6.408;2022-07-11T22:28:14;17.00;99.90
59208;DHT22;44977;53.132;6.408;2022-07-11T22:33:14;17.00;99.90
59208;DHT22;44977;53.132;6.408;2022-07-11T22:38:15;16.90;99.90
59208;DHT22;44977;53.132;6.408;2022-07-11T22:43:16;16.90;99.90
59208;DHT22;44977;53.132;6.408;2022-07-11T22:48:20;16.90;99.90
59208;DHT22;44977;53.132;6.408;2022-07-11T22:53:21;16.90;99.90
59208;DHT22;44977;53.132;6.408;2022-07-11T22:58:21;16.80;99.90
59208;DHT22;44977;53.132;6.408;2022-07-11T23:03:22;16.80;99.90
59208;DHT22;44977;53.132;6.408;2022-07-11T23:08:23;16.80;99.90
59208;DHT22;44977;53.132;6.408;2022-07-11T23:13:23;16.70;99.90
59208;DHT22;44977;53.132;6.408;2022-07-11T23:18:24;16.70;99.90
59208;DHT22;44977;53.132;6.408;2022-07-11T23:23:25;16.60;99.90
59208;DHT22;44977;53.132;6.408;2022-07-11T23:28:25;16.60;99.90
59208;DHT22;44977;53.132;6.408;2022-07-11T23:33:26;16.50;99.90
59208;DHT22;44977;53.132;6.408;2022-07-11T23:38:27;16.50;99.90
59208;DHT22;44977;53.132;6.408;2022-07-11T23:43:27;16.50;99.90
59208;DHT22;44977;53.132;6.408;2022-07-11T23:48:28;16.40;99.90
59208;DHT22;44977;53.132;6.408;2022-07-11T23:53:29;16.40;99.90
59208;DHT22;44977;53.132;6.408;2022-07-11T23:58:29;16.40;99.90
